• Join FlightAware (Why Join?)
  • Login
  • US Flag 
11:48PM EDT


 

Airport Tracker/Info


-or-


 

Live Flight TrackerFlight Track Log ✈ SAS4425 ✈ 28-Apr-2013 ✈ ENTC / TOS - ENGM / OSL

Flight Track Log - Related Links

Times and Time Zones

All times are in EDT time to prevent confusion due to time zone crossing. See the SAS4425 flight status page for this flight to view local times or setup timezone preferences in your user account.

Time Position Orientation Groundspeed Altitude Reporting Facility
EDT Latitude Longitude Course Direction KTS MPH feet Rate Location/Type
11:13AM 69.6790 19.6110 North  Level FlightAware
11:15AM 69.6790 19.6110 90° East 240 Level FlightAware
11:16AM 69.6800 19.6240 78° East 360 Level FlightAware
11:16AM 69.6830 19.6250 North 420 Level FlightAware
11:17AM 69.6880 19.6280 12° North 480 Level FlightAware
11:18AM 69.6930 19.6290 North 780 Level FlightAware
11:19AM 69.6920 19.6160 258° West 1,200 Level FlightAware
11:19AM 69.6590 18.9010 194° South 178 205 1,700 1,800 Climbing FlightAware
11:20AM 69.6360 18.8520 217° Southwest 233 268 2,400 2,160 Climbing FlightAware
11:21AM 69.6040 18.7780 219° Southwest 258 297 4,100 3,000 Climbing FlightAware
11:21AM 69.5800 18.7250 218° Southwest 274 315 5,400 2,280 Climbing FlightAware
11:21AM 69.5480 18.6550 217° Southwest 311 358 6,200 2,400 Climbing FlightAware
11:22AM 69.5190 18.5920 217° Southwest 319 367 7,600 3,480 Climbing FlightAware
11:23AM 69.4500 18.4360 218° Southwest 325 374 11,200 3,360 Climbing FlightAware
11:23AM 69.4070 18.3470 216° Southwest 330 380 13,000 2,820 Climbing FlightAware
11:24AM 69.3230 18.2240 207° Southwest 351 404 15,700 2,640 Climbing FlightAware
11:25AM 69.2570 18.1300 207° Southwest 360 414 17,700 2,520 Climbing FlightAware
11:26AM 69.1890 18.0350 206° Southwest 370 426 19,500 2,220 Climbing FlightAware
11:27AM 69.1360 17.9610 206° Southwest 381 438 20,700 2,160 Climbing FlightAware
11:27AM 69.0640 17.8610 206° Southwest 388 447 22,400 2,040 Climbing FlightAware
11:28AM 68.9770 17.7400 207° Southwest 399 459 24,100 1,800 Climbing FlightAware
11:29AM 68.9080 17.6460 206° Southwest 406 467 25,300 1,500 Climbing FlightAware
11:32AM 68.6479 17.3736 201° Southwest  Level Estimated
11:32AM 68.6150 17.2520 201° Southwest 430 495 29,500  Level FlightAware
11:33AM 68.5110 17.1160 206° Southwest 431 496 30,800 1,440 Climbing FlightAware
11:33AM 68.4310 17.0100 206° Southwest 429 494 31,900 1,320 Climbing FlightAware
11:34AM 68.3510 16.9060 206° Southwest 425 489 32,800 1,080 Climbing FlightAware
11:35AM 68.2790 16.8130 206° Southwest 428 493 33,500 1,080 Climbing FlightAware
11:35AM 68.2090 16.7230 206° Southwest 425 489 34,300 1,080 Climbing FlightAware
11:36AM 68.1500 16.6490 205° Southwest 431 496 34,900 840 Climbing FlightAware
11:37AM 68.0750 16.5540 205° Southwest 426 490 35,400 720 Climbing FlightAware
11:38AM 67.9880 16.4450 205° Southwest 430 495 36,000 360 Climbing FlightAware
11:38AM 67.9000 16.3350 205° Southwest 430 495 36,000  Level FlightAware
11:39AM 67.8240 16.2420 205° Southwest 424 488 36,000  Level FlightAware
11:40AM 67.7490 16.1500 205° Southwest 426 490 36,000  Level FlightAware
11:40AM 67.6760 16.0620 205° Southwest 427 491 36,000  Level FlightAware
11:41AM 67.5930 15.9610 205° Southwest 428 493 36,000  Level FlightAware
11:42AM 67.5200 15.8740 205° Southwest 429 494 36,000  Level FlightAware
11:42AM 67.4460 15.7860 205° Southwest 429 494 36,000  Level FlightAware
11:43AM 67.3630 15.6880 204° Southwest 437 503 36,000  Level FlightAware
11:44AM 67.2900 15.6030 204° Southwest 438 504 36,000  Level FlightAware
11:45AM 67.2160 15.5170 204° Southwest 437 503 36,000  Level FlightAware
11:45AM 67.1340 15.4220 204° Southwest 428 493 36,000  Level FlightAware
11:46AM 67.0610 15.3370 204° Southwest 427 491 36,000  Level FlightAware
11:47AM 66.9870 15.2530 204° Southwest 425 489 36,000  Level FlightAware
11:47AM 66.9050 15.1600 204° Southwest 424 488 36,000  Level FlightAware
11:48AM 66.8300 15.0760 204° Southwest 422 486 36,000  Level FlightAware
11:49AM 66.7500 14.9860 204° Southwest 422 486 36,000  Level FlightAware
11:49AM 66.6770 14.9050 204° Southwest 423 487 36,000  Level FlightAware
11:50AM 66.6030 14.8240 203° Southwest 422 486 36,000  Level FlightAware
11:51AM 66.5250 14.7390 203° Southwest 422 486 36,000  Level FlightAware
11:52AM 66.4520 14.6590 204° Southwest 422 486 36,000  Level FlightAware
11:52AM 66.3690 14.5700 203° Southwest 425 489 36,000  Level FlightAware
11:53AM 66.3050 14.5010 203° Southwest 426 490 36,000  Level FlightAware
11:54AM 66.2310 14.4220 203° Southwest 425 489 36,000  Level FlightAware
11:54AM 66.1490 14.3350 203° Southwest 433 498 36,000  Level FlightAware
11:55AM 66.0840 14.2660 203° Southwest 433 498 36,000  Level FlightAware
11:56AM 66.0110 14.1900 203° Southwest 434 499 36,000  Level FlightAware
11:56AM 65.9370 14.1130 203° Southwest 434 499 36,000  Level FlightAware
11:57AM 65.8720 14.0460 203° Southwest 435 501 36,000  Level FlightAware
11:58AM 65.7890 13.9600 203° Southwest 424 488 36,000  Level FlightAware
11:58AM 65.7160 13.8880 202° Southwest 431 496 36,000  Level FlightAware
11:59AM 65.6320 13.8090 201° Southwest 430 495 36,000  Level FlightAware
12:00PM 65.5590 13.7390 202° Southwest 430 495 36,000  Level FlightAware
12:00PM 65.4840 13.6670 202° Southwest 430 495 36,000  Level FlightAware
12:01PM 65.4010 13.5880 202° Southwest 429 494 36,000  Level FlightAware
12:02PM 65.3270 13.5190 201° Southwest 429 494 36,000  Level FlightAware
12:02PM 65.2550 13.4520 201° Southwest 428 493 36,000  Level FlightAware
12:03PM 65.1720 13.3760 201° Southwest 429 494 36,000  Level FlightAware
12:04PM 65.0990 13.3080 201° Southwest 429 494 36,000  Level FlightAware
12:05PM 65.0140 13.2300 201° Southwest 431 496 36,000  Level FlightAware
12:05PM 64.9410 13.1630 201° Southwest 431 496 36,000  Level FlightAware
12:06PM 64.8720 13.1010 201° Southwest 432 497 36,000  Level FlightAware
12:07PM 64.7960 13.0330 201° Southwest 434 499 36,000  Level FlightAware
12:07PM 64.7090 12.9550 201° Southwest 434 499 36,000  Level FlightAware
12:08PM 64.6430 12.8960 201° Southwest 433 498 36,000  Level FlightAware
12:09PM 64.5390 12.8040 201° Southwest 433 498 36,000  Level FlightAware
12:10PM 64.4190 12.6990 201° Southwest 429 494 36,000  Level FlightAware
12:11PM 64.3460 12.6360 200° South 428 493 36,000  Level FlightAware
12:13PM 64.1417 12.5496 190° South  Level Estimated
12:13PM 64.0360 12.3700 190° South 410 472 36,000  Level FlightAware
12:14PM 64.0378 12.5062 190° South  Level Estimated
12:14PM 63.9550 12.3020 200° South 408 470 36,000  Level FlightAware
12:15PM 63.8830 12.2420 200° South 414 476 36,000  Level FlightAware
12:15PM 63.8100 12.1820 200° South 414 476 36,000  Level FlightAware
12:16PM 63.7370 12.1210 200° South 410 472 36,000  Level FlightAware
12:17PM 63.6570 12.0550 200° South 409 471 36,000  Level FlightAware
12:18PM 63.5750 12.0000 197° South 418 481 36,000  Level FlightAware
12:18PM 63.4950 11.9500 196° South 417 480 36,000  Level FlightAware
12:19PM 63.4280 11.9060 196° South 417 480 36,000  Level FlightAware
12:20PM 63.3560 11.8610 196° South 418 481 36,000  Level FlightAware
12:20PM 63.2840 11.8150 196° South 416 479 36,000  Level FlightAware
12:21PM 63.2010 11.7620 196° South 415 478 36,000  Level FlightAware
12:22PM 63.1250 11.7150 196° South 419 482 36,000  Level FlightAware
12:22PM 63.0500 11.6680 196° South 421 484 36,000  Level FlightAware
12:23PM 62.9690 11.6180 196° South 416 479 36,000  Level FlightAware
12:24PM 62.8870 11.5680 196° South 415 478 36,000  Level FlightAware
12:25PM 62.8110 11.5210 196° South 418 481 36,000  Level FlightAware
12:25PM 62.7230 11.4680 195° South 417 480 36,000  Level FlightAware
12:26PM 62.6560 11.4270 196° South 415 478 36,000  Level FlightAware
12:27PM 62.5760 11.3790 195° South 404 465 36,000  Level FlightAware
12:27PM 62.4930 11.3290 196° South 414 476 36,000  Level FlightAware
12:28PM 62.4210 11.2860 195° South 414 476 36,000  Level FlightAware
12:29PM 62.3430 11.2400 195° South 416 479 36,000  Level FlightAware
12:29PM 62.2690 11.1970 195° South 400 460 36,000  Level FlightAware
12:30PM 62.1900 11.1500 196° South 398 458 36,000  Level FlightAware
12:31PM 62.1110 11.1040 195° South 401 461 36,000 -720 Level FlightAware
12:32PM 62.0350 11.0810 188° South 422 486 35,000 -1,200 Descending FlightAware
12:32PM 61.9500 11.0610 186° South 386 444 34,300 -1,860 Descending FlightAware
12:33PM 61.8820 11.0450 186° South 386 444 32,400 -2,880 Descending FlightAware
12:34PM 61.8080 11.0270 187° South 387 445 30,500 -2,220 Descending FlightAware
12:34PM 61.7470 11.0130 186° South 375 432 29,300 -2,040 Descending FlightAware
12:35PM 61.6440 10.9900 186° South 350 403 27,100 -2,160 Descending FlightAware
12:36PM 61.5760 10.9750 186° South 342 394 25,900 -1,980 Descending FlightAware
12:36PM 61.5290 10.9640 186° South 338 389 24,800 -2,160 Descending FlightAware
12:37PM 61.4680 10.9500 186° South 334 384 23,400 -1,920 Descending FlightAware
12:38PM 61.4040 10.9360 186° South 331 381 22,100 -1,740 Descending FlightAware
12:39PM 61.3370 10.9200 187° South 328 377 21,000 -1,680 Descending FlightAware
12:39PM 61.2830 10.9080 186° South 322 371 20,000 -1,800 Descending FlightAware
12:40PM 61.2110 10.8920 186° South 314 361 18,500 -1,740 Descending FlightAware
12:41PM 61.1520 10.8950 179° South 325 374 17,400 -1,620 Descending FlightAware
12:41PM 61.1010 10.9090 172° South 317 365 16,500 -1,500 Descending FlightAware
12:42PM 61.0280 10.9290 172° South 320 368 15,300 -1,500 Descending FlightAware
12:43PM 60.9770 10.9440 172° South 312 359 14,400 -1,560 Descending FlightAware
12:44PM 60.8800 10.9710 172° South 312 359 12,600 -1,500 Descending FlightAware
12:45PM 60.8070 10.9910 172° South 310 357 11,400 -1,500 Descending FlightAware
12:46PM 60.7120 11.0180 172° South 313 360 9,700 -1,560 Descending FlightAware
12:46PM 60.6910 11.0300 164° South 316 364 9,200 -1,740 Descending FlightAware
12:46PM 60.6650 11.0460 163° South 314 361 8,700 -900 Descending FlightAware
12:47PM 60.6170 11.0750 163° South 288 331 8,400 -660 Descending FlightAware
12:47PM 60.5920 11.0910 163° South 282 325 8,100 -900 Descending FlightAware
12:48PM 60.5690 11.1040 164° South 268 308 7,800 -1,080 Descending FlightAware
12:48PM 60.5320 11.1260 164° South 253 291 7,200 -1,380 Descending FlightAware
12:48PM 60.5170 11.1350 164° South 250 288 6,800 -1,080 Descending FlightAware
12:49PM 60.4940 11.1490 163° South 238 274 6,600 -600 Descending FlightAware
12:49PM 60.4740 11.1610 164° South 225 259 6,400 -720 Descending FlightAware
12:50PM 60.4450 11.1790 163° South 209 241 6,000 -1,140 Descending FlightAware
12:50PM 60.4220 11.1920 164° South 208 239 5,400 -1,380 Descending FlightAware
12:50PM 60.4080 11.1980 168° South 199 229 5,100 -1,020 Descending FlightAware
12:50PM 60.3950 11.1960 184° South 188 216 4,900 -1,080 Descending FlightAware
12:51PM 60.3790 11.1860 197° South 175 201 4,500 -1,080 Descending FlightAware
12:51PM 60.3650 11.1780 196° South 161 185 4,200 -960 Descending FlightAware
12:52PM 60.3440 11.1660 196° South 148 170 3,700 -960 Descending FlightAware
12:52PM 60.3300 11.1580 196° South 144 166 3,400 -900 Descending FlightAware
12:52PM 60.3210 11.1530 195° South 144 166 3,200 -720 Descending FlightAware
12:53PM 60.2990 11.1400 196° South 134 154 2,800 -720 Descending FlightAware
12:53PM 60.2860 11.1320 197° South 123 142 2,500 -780 Descending FlightAware
12:54PM 60.2690 11.1220 196° South 126 145 2,100 -780 Descending FlightAware
12:54PM 60.2540 11.1140 195° South 132 152 1,800 -780 Descending FlightAware
12:55PM 60.2360 11.1030 197° South 136 157 1,400 -840 Descending FlightAware
12:55PM 60.2160 11.0920 195° South 140 161 1,000 -840 Descending FlightAware